Time;durP1;ratioP1;P1;durP2;ratioP2;P2;SDS_P1;SDS_P2;PMS_P1;PMS_P2;Temp;Humidity;BMP_temperature;BMP_pressure;BME280_temperature;BME280_humidity;BME280_pressure;Samples;Min_cycle;Max_cycle;Signal;HPM_P1;HPM_P2
2022/12/23 00:01:43;;;;;;;0.40;0.37;;;;;;;3.46;61.16;95258.94;5114179;28;20425;-60
2022/12/23 00:04:12;;;;;;;7.00;0.50;;;;;;;2.81;62.58;95233.75;5113568;28;20464;-60
2022/12/23 00:06:42;;;;;;;3.23;3.13;;;;;;;2.30;64.17;95232.38;5113841;28;20439;-59
2022/12/23 00:09:10;;;;;;;0.30;0.20;;;;;;;2.17;63.59;95155.94;5114370;28;20816;-59
2022/12/23 00:15:04;;;;;;;1.83;1.73;;;;;;;1.31;63.94;95110.94;5114099;28;20481;-60
2022/12/23 00:17:13;;;;;;;0.87;0.87;;;;;;;0.40;63.04;94910.81;5113898;28;20496;-60
2022/12/23 00:19:50;;;;;;;0.80;0.80;;;;;;;3.16;63.15;95269.47;5114035;28;20973;-60
2022/12/23 00:23:03;;;;;;;4.00;0.93;;;;;;;0.21;62.68;94804.13;5113780;28;20428;-60
2022/12/23 00:25:09;;;;;;;2.70;0.90;;;;;;;3.13;63.18;95266.50;5113603;28;20435;-60
2022/12/23 00:27:40;;;;;;;12.53;0.80;;;;;;;3.21;63.06;95271.44;5113730;28;20500;-60
2022/12/23 00:30:10;;;;;;;2.10;1.77;;;;;;;3.25;62.89;95261.28;5113650;28;20514;-60
2022/12/23 00:32:39;;;;;;;4.10;1.47;;;;;;;-0.07;62.78;94839.28;5114042;28;20507;-60
2022/12/23 00:35:08;;;;;;;0.40;0.33;;;;;;;0.42;62.38;94879.28;5113651;28;20521;-60
2022/12/23 00:37:38;;;;;;;2.43;1.33;;;;;;;2.16;62.25;95058.41;5113524;28;20427;-60
2022/12/23 00:42:55;;;;;;;0.40;0.40;;;;;;;1.32;61.18;94977.56;5113801;28;20508;-60
2022/12/23 00:45:24;;;;;;;1.03;1.03;;;;;;;0.03;61.10;94815.34;5113325;28;20439;-60
2022/12/23 00:50:40;;;;;;;4.37;0.80;;;;;;;2.61;60.63;95097.19;5112876;28;20499;-60
2022/12/23 00:53:09;;;;;;;3.60;1.03;;;;;;;3.52;61.60;95259.84;5113279;28;20424;-60
2022/12/23 00:55:38;;;;;;;0.50;0.50;;;;;;;2.82;61.49;95147.16;5113211;28;20427;-59
2022/12/23 00:58:06;;;;;;;0.47;0.47;;;;;;;2.71;61.78;95131.44;5113286;28;20428;-61
2022/12/23 01:06:06;;;;;;;0.50;0.50;;;;;;;3.50;62.14;95265.31;5113118;28;20522;-59
2022/12/23 01:08:36;;;;;;;5.00;1.80;;;;;;;2.12;62.13;95103.53;5113324;28;20456;-60
2022/12/23 01:11:06;;;;;;;7.43;0.53;;;;;;;3.37;61.91;95255.03;5113392;28;20557;-60
2022/12/23 01:13:35;;;;;;;1.40;1.17;;;;;;;2.22;61.48;95081.06;5112921;28;20436;-60
2022/12/23 01:16:05;;;;;;;1.07;1.03;;;;;;;2.64;61.42;95149.84;5112992;28;20514;-60
2022/12/23 01:18:42;;;;;;;3.40;2.50;;;;;;;1.04;62.36;94889.38;5112953;28;20423;-59
2022/12/23 01:21:11;;;;;;;3.07;1.73;;;;;;;3.10;62.85;95264.34;5112784;28;20428;-60
2022/12/23 01:23:41;;;;;;;1.50;1.50;;;;;;;2.94;64.18;95249.25;5112761;28;20935;-60
2022/12/23 01:26:11;;;;;;;10.10;0.93;;;;;;;3.02;64.05;95257.59;5112745;28;20868;-60
2022/12/23 01:28:58;;;;;;;6.43;0.93;;;;;;;2.39;64.19;95152.63;5112895;28;20430;-60
2022/12/23 01:31:27;;;;;;;0.80;0.80;;;;;;;2.78;64.83;95249.91;5112661;28;20436;-60
2022/12/23 01:33:56;;;;;;;1.13;1.13;;;;;;;1.61;64.98;95102.16;5112474;28;20420;-60
2022/12/23 01:36:25;;;;;;;2.17;2.07;;;;;;;2.53;64.83;95235.13;5112437;28;20432;-59
2022/12/23 01:38:55;;;;;;;0.70;0.53;;;;;;;2.41;65.24;95249.97;5112746;28;20435;-60
2022/12/23 01:44:41;;;;;;;5.13;0.80;;;;;;;2.31;66.26;95251.50;5067853;28;20471;-59
2022/12/23 01:47:14;;;;;;;1.37;1.30;;;;;;;1.23;65.93;95046.75;5112188;28;20435;-59
2022/12/23 01:49:43;;;;;;;0.83;0.83;;;;;;;2.78;64.95;95255.94;5111947;28;20471;-59
2022/12/23 01:52:13;;;;;;;0.40;0.30;;;;;;;2.78;64.52;95249.91;5112053;28;20428;-59
2022/12/23 01:54:44;;;;;;;0.40;0.40;;;;;;;1.82;65.15;95140.09;5112408;28;20513;-59
2022/12/23 01:57:13;;;;;;;0.53;0.53;;;;;;;-2.48;64.77;94493.69;5112288;28;20882;-60
2022/12/23 02:05:17;;;;;;;0.40;0.40;;;;;;;2.61;65.87;95243.69;5111357;28;20532;-60
2022/12/23 02:10:43;;;;;;;0.70;0.70;;;;;;;2.37;65.50;95193.91;5111161;28;20511;-59
2022/12/23 02:13:19;;;;;;;0.43;0.43;;;;;;;2.62;65.15;95251.31;5111816;28;20432;-59
2022/12/23 02:18:58;;;;;;;0.40;0.40;;;;;;;2.38;65.41;95203.31;5111890;28;20436;-60
2022/12/23 02:21:42;;;;;;;1.60;1.50;;;;;;;2.56;65.49;95244.34;5111820;28;20428;-59
2022/12/23 02:24:49;;;;;;;0.50;0.50;;;;;;;2.28;65.31;95187.34;5111658;28;20992;-60
2022/12/23 02:27:27;;;;;;;0.77;0.77;;;;;;;2.69;65.46;95251.22;5114941;28;20439;-59
2022/12/23 02:30:35;;;;;;;0.40;0.40;;;;;;;1.83;65.63;95142.47;5116190;28;20432;-59
2022/12/23 02:33:15;;;;;;;0.40;0.40;;;;;;;2.49;65.94;95252.28;5116148;28;20510;-59
2022/12/23 02:35:52;;;;;;;2.50;2.40;;;;;;;1.13;66.10;95054.28;5115799;28;20431;-60
2022/12/23 02:38:26;;;;;;;1.70;1.70;;;;;;;2.09;65.93;95196.25;5116355;28;20506;-60
2022/12/23 02:41:04;;;;;;;1.53;1.53;;;;;;;1.43;65.77;95076.03;5116118;28;20526;-60
2022/12/23 02:43:42;;;;;;;0.70;0.70;;;;;;;2.33;66.23;95226.72;5115970;28;20424;-60
2022/12/23 02:46:17;;;;;;;3.17;3.07;;;;;;;2.54;65.68;95223.63;5115914;28;20484;-59
2022/12/23 02:48:50;;;;;;;1.83;1.73;;;;;;;2.46;65.66;95223.13;5115712;28;20518;-59
2022/12/23 02:51:23;;;;;;;0.47;0.47;;;;;;;2.47;65.88;95240.44;5116239;28;20534;-59
2022/12/23 02:53:56;;;;;;;0.50;0.50;;;;;;;0.02;65.81;94867.69;5116025;28;20576;-59
2022/12/23 02:56:27;;;;;;;0.80;0.80;;;;;;;1.26;65.91;95044.50;5115940;28;20839;-59
2022/12/23 02:59:01;;;;;;;0.83;0.83;;;;;;;2.20;65.79;95182.44;5115527;28;20977;-59
2022/12/23 03:01:33;;;;;;;0.30;0.23;;;;;;;0.57;66.95;94956.16;5115966;28;20960;-59
2022/12/23 03:04:01;;;;;;;1.00;1.00;;;;;;;1.01;66.69;95041.16;5115840;28;20438;-61
2022/12/23 03:06:37;;;;;;;4.53;0.53;;;;;;;0.93;66.59;95046.69;5114754;28;20432;-58
2022/12/23 03:09:06;;;;;;;0.60;0.50;;;;;;;0.75;67.23;95035.41;5115443;28;20522;-60
2022/12/23 03:11:45;;;;;;;0.90;0.87;;;;;;;0.69;67.72;95013.59;5115447;28;20432;-59
2022/12/23 03:14:43;;;;;;;14.73;1.10;;;;;;;2.21;67.47;95236.31;5115388;28;20523;-60
2022/12/23 03:17:28;;;;;;;0.83;0.83;;;;;;;2.19;66.59;95245.41;5115372;28;21065;-60
2022/12/23 03:20:04;;;;;;;0.80;0.80;;;;;;;1.83;67.44;95220.88;5114832;28;20443;-60
2022/12/23 03:22:38;;;;;;;1.53;0.47;;;;;;;1.16;68.36;95182.53;5115074;28;20522;-59
2022/12/23 03:25:15;;;;;;;1.57;1.23;;;;;;;1.06;70.85;95213.53;5115107;28;20471;-60
2022/12/23 03:27:52;;;;;;;0.80;0.80;;;;;;;1.25;71.20;95237.88;5115168;28;20949;-59
2022/12/23 03:30:23;;;;;;;1.70;1.40;;;;;;;-0.28;72.37;95014.13;5115029;28;20430;-59
2022/12/23 03:32:57;;;;;;;2.03;1.93;;;;;;;1.49;71.38;95225.84;5115074;28;20523;-60
2022/12/23 03:35:30;;;;;;;2.20;1.70;;;;;;;0.90;71.90;95130.59;5114967;28;20435;-59
2022/12/23 03:38:01;;;;;;;0.30;0.30;;;;;;;1.27;70.55;95160.94;5113471;28;20438;-60
2022/12/23 03:40:35;;;;;;;2.00;0.73;;;;;;;1.78;69.98;95225.94;5115087;28;20799;-60
2022/12/23 03:43:07;;;;;;;1.67;1.57;;;;;;;1.90;69.65;95231.25;5114756;28;20444;-60
2022/12/23 03:45:40;;;;;;;0.50;0.50;;;;;;;1.77;69.00;95232.19;5115001;28;20506;-59
2022/12/23 03:48:17;;;;;;;1.37;1.37;;;;;;;1.85;68.57;95218.84;5114527;28;21011;-58
2022/12/23 03:50:48;;;;;;;4.93;1.73;;;;;;;1.55;68.74;95183.19;5114795;28;20503;-59
2022/12/23 03:53:23;;;;;;;0.60;0.60;;;;;;;1.82;68.76;95213.25;5114583;28;20760;-59
2022/12/23 03:55:55;;;;;;;0.50;0.43;;;;;;;1.48;69.31;95185.06;5114687;28;20829;-59
2022/12/23 03:58:34;;;;;;;1.43;1.33;;;;;;;0.35;68.79;94981.03;5114580;28;20510;-59
2022/12/23 04:01:10;;;;;;;1.17;1.17;;;;;;;1.74;68.74;95210.94;5114748;28;20426;-59
2022/12/23 04:03:53;;;;;;;0.50;0.47;;;;;;;1.49;68.33;95171.00;5114445;28;20471;-59
2022/12/23 04:06:27;;;;;;;1.70;1.60;;;;;;;1.74;68.66;95213.53;5114417;28;20470;-59
2022/12/23 04:08:56;;;;;;;0.40;0.27;;;;;;;1.45;69.41;95217.63;5113896;28;20436;-60
2022/12/23 04:11:25;;;;;;;0.30;0.30;;;;;;;0.62;68.74;95075.44;5114330;28;20417;-59
2022/12/23 04:13:56;;;;;;;0.40;0.40;;;;;;;1.34;68.99;95192.25;5113992;28;20424;-59
2022/12/23 04:16:25;;;;;;;1.00;1.00;;;;;;;1.47;68.70;95220.03;5114203;28;20420;-59
2022/12/23 04:18:54;;;;;;;0.83;0.83;;;;;;;1.29;69.84;95218.97;5114142;28;20432;-60
2022/12/23 04:21:23;;;;;;;0.30;0.30;;;;;;;0.93;70.06;95130.16;5114510;28;20490;-60
2022/12/23 04:23:51;;;;;;;0.50;0.50;;;;;;;0.41;69.76;95052.34;5113973;28;20460;-60
2022/12/23 04:26:19;;;;;;;1.17;1.17;;;;;;;1.59;70.00;95223.53;5113634;28;20987;-61
2022/12/23 04:28:47;;;;;;;0.73;0.73;;;;;;;1.38;69.12;95171.69;5114118;28;20431;-60
2022/12/23 04:31:16;;;;;;;1.43;1.43;;;;;;;1.72;68.76;95226.81;5114257;28;20865;-60
2022/12/23 04:33:45;;;;;;;0.30;0.27;;;;;;;-0.33;69.19;94993.13;5113740;28;20439;-60
2022/12/23 04:36:14;;;;;;;1.63;0.60;;;;;;;1.32;69.53;95172.59;5113703;28;20424;-61
2022/12/23 04:38:43;;;;;;;2.20;1.13;;;;;;;0.98;69.93;95199.97;5113899;28;20787;-60
2022/12/23 04:41:11;;;;;;;2.97;1.17;;;;;;;0.15;70.71;95104.66;5113130;28;20458;-60
2022/12/23 04:43:40;;;;;;;0.60;0.60;;;;;;;1.18;70.92;95227.50;5113550;28;20438;-61
2022/12/23 04:46:08;;;;;;;0.30;0.20;;;;;;;1.15;70.06;95207.06;5113363;28;20478;-60
2022/12/23 04:48:36;;;;;;;0.63;0.63;;;;;;;1.38;69.50;95231.75;5112822;28;20451;-60
2022/12/23 04:51:05;;;;;;;1.20;1.20;;;;;;;0.78;69.45;95179.25;5113492;28;20440;-60
2022/12/23 04:53:35;;;;;;;1.67;1.63;;;;;;;1.29;69.88;95237.25;5113351;28;20468;-61
2022/12/23 04:56:04;;;;;;;0.30;0.30;;;;;;;0.80;71.54;95213.75;5113412;28;20913;-61
2022/12/23 04:58:33;;;;;;;0.87;0.87;;;;;;;0.90;72.70;95237.56;5113034;28;20509;-61
2022/12/23 05:01:02;;;;;;;2.43;2.20;;;;;;;0.87;73.01;95230.13;5113379;28;20846;-60
2022/12/23 05:03:30;;;;;;;0.67;0.67;;;;;;;0.91;73.60;95233.91;5112944;28;20431;-61
2022/12/23 05:05:59;;;;;;;1.43;1.43;;;;;;;-3.87;72.75;94552.91;5113445;28;20467;-61
2022/12/23 05:08:28;;;;;;;0.43;0.43;;;;;;;-0.38;73.77;95029.41;5113130;28;20435;-61
2022/12/23 05:10:58;;;;;;;1.90;1.90;;;;;;;0.82;74.69;95235.19;5113040;28;20442;-60
2022/12/23 05:13:28;;;;;;;1.20;1.20;;;;;;;0.69;75.98;95211.00;5112984;28;20792;-60
2022/12/23 05:15:56;;;;;;;1.97;1.87;;;;;;;0.16;77.00;95147.94;5112695;28;20955;-60
2022/12/23 05:18:24;;;;;;;3.40;1.63;;;;;;;-0.06;82.26;95189.94;5112855;28;20419;-61
2022/12/23 05:20:53;;;;;;;0.60;0.60;;;;;;;0.32;84.28;95225.66;5112977;28;20428;-60
2022/12/23 05:23:21;;;;;;;0.97;0.97;;;;;;;0.86;80.80;95252.00;5113111;28;20448;-60
2022/12/23 05:25:51;;;;;;;1.30;0.80;;;;;;;1.19;77.61;95255.19;5112774;28;20971;-60
2022/12/23 05:28:22;;;;;;;1.47;1.37;;;;;;;0.95;76.98;95221.25;5112714;28;20897;-60
2022/12/23 05:30:57;;;;;;;2.83;2.00;;;;;;;0.91;77.64;95244.34;5112579;28;20865;-60
2022/12/23 05:33:25;;;;;;;1.73;0.67;;;;;;;0.82;77.88;95227.38;5112446;28;20434;-60
2022/12/23 05:35:54;;;;;;;1.03;1.03;;;;;;;0.94;77.55;95269.22;5112522;28;20876;-60
2022/12/23 05:38:22;;;;;;;1.27;1.13;;;;;;;0.88;78.38;95263.06;5112280;28;20493;-60
2022/12/23 05:40:51;;;;;;;1.40;1.40;;;;;;;1.09;77.14;95274.94;5112182;28;20515;-60
2022/12/23 05:43:21;;;;;;;0.53;0.53;;;;;;;0.99;77.64;95259.75;5112472;28;20446;-60
2022/12/23 05:45:54;;;;;;;1.87;0.77;;;;;;;1.00;76.08;95193.53;5112298;28;20470;-61
2022/12/23 05:48:22;;;;;;;1.13;1.13;;;;;;;0.96;76.15;95275.81;5112086;28;20477;-60
2022/12/23 05:50:51;;;;;;;9.03;1.13;;;;;;;1.32;74.62;95266.56;5112438;28;20439;-60
2022/12/23 05:53:20;;;;;;;1.10;1.10;;;;;;;1.19;74.66;95281.28;5112250;28;20416;-60
2022/12/23 05:55:49;;;;;;;1.13;1.13;;;;;;;1.22;74.56;95286.09;5112293;28;20455;-59
2022/12/23 05:58:17;;;;;;;0.87;0.87;;;;;;;1.11;74.70;95273.72;5112270;28;20983;-60
2022/12/23 06:00:45;;;;;;;4.37;3.83;;;;;;;1.26;75.14;95273.44;5111687;28;20764;-60
2022/12/23 06:03:15;;;;;;;1.60;1.50;;;;;;;1.31;74.76;95270.19;5112163;28;20420;-60
2022/12/23 06:05:44;;;;;;;1.40;0.97;;;;;;;1.30;74.43;95279.81;5112106;28;20511;-60
2022/12/23 06:08:31;;;;;;;1.33;1.03;;;;;;;1.23;74.83;95287.72;5111830;28;20463;-59
2022/12/23 06:10:59;;;;;;;1.00;1.00;;;;;;;0.90;74.84;95232.34;5111771;28;20429;-59
2022/12/23 06:13:27;;;;;;;1.03;1.03;;;;;;;0.61;73.90;95149.47;5111670;28;20432;-60
2022/12/23 06:15:56;;;;;;;0.77;0.77;;;;;;;0.96;74.61;95288.88;5112057;28;20529;-55
2022/12/23 06:18:25;;;;;;;1.77;1.77;;;;;;;1.03;75.28;95292.28;5111809;28;20481;-60
2022/12/23 06:20:54;;;;;;;2.63;2.47;;;;;;;1.36;75.22;95286.81;5111797;28;20492;-60
2022/12/23 06:23:22;;;;;;;1.77;1.40;;;;;;;1.37;73.80;95264.13;5111868;28;20428;-60
2022/12/23 06:25:50;;;;;;;3.03;0.43;;;;;;;1.52;72.33;95225.41;5111871;28;20420;-60
2022/12/23 06:28:19;;;;;;;2.80;2.63;;;;;;;1.90;71.66;95279.09;5111740;28;20431;-61
2022/12/23 06:30:52;;;;;;;0.80;0.80;;;;;;;1.92;71.55;95287.50;5112196;28;20459;-60
2022/12/23 06:33:20;;;;;;;1.77;1.73;;;;;;;1.94;71.27;95279.47;5111807;28;20474;-59
2022/12/23 06:35:50;;;;;;;1.70;1.47;;;;;;;1.99;72.06;95284.84;5111819;28;20434;-61
2022/12/23 06:38:19;;;;;;;4.37;2.17;;;;;;;2.62;70.46;95287.13;5112157;28;20485;-61
2022/12/23 06:40:48;;;;;;;1.80;1.70;;;;;;;2.85;69.26;95261.06;5112066;28;20432;-61
2022/12/23 06:43:16;;;;;;;4.30;1.47;;;;;;;3.37;68.09;95290.91;5111760;28;20424;-61
2022/12/23 06:45:46;;;;;;;3.93;3.70;;;;;;;2.97;68.27;95261.91;5111996;28;20428;-61
2022/12/23 06:48:16;;;;;;;3.33;2.60;;;;;;;3.38;68.12;95289.91;5111770;28;20485;-61
2022/12/23 06:50:45;;;;;;;4.10;3.03;;;;;;;3.85;66.13;95284.50;5111455;28;20466;-60
2022/12/23 06:53:14;;;;;;;3.37;3.23;;;;;;;3.95;66.12;95283.13;5111578;28;20484;-60
2022/12/23 06:55:43;;;;;;;3.50;3.30;;;;;;;4.02;64.97;95283.81;5111972;28;20435;-60
2022/12/23 06:58:11;;;;;;;5.77;5.27;;;;;;;3.70;64.31;95242.19;5111619;28;20428;-60
2022/12/23 07:00:39;;;;;;;4.53;3.93;;;;;;;4.52;63.11;95298.00;5111577;28;20460;-60
2022/12/23 07:03:08;;;;;;;3.77;3.00;;;;;;;4.98;62.00;95299.69;5111515;28;20424;-59
2022/12/23 07:05:36;;;;;;;3.77;3.47;;;;;;;5.17;61.06;95297.66;5111578;28;20868;-59
2022/12/23 07:08:05;;;;;;;4.57;2.67;;;;;;;5.33;60.42;95302.16;5111749;28;20859;-61
2022/12/23 07:10:35;;;;;;;6.60;3.27;;;;;;;5.82;59.30;95296.09;5111477;28;20448;-60
2022/12/23 07:13:03;;;;;;;4.73;4.00;;;;;;;5.72;59.75;95280.97;5113947;28;20456;-61
2022/12/23 07:15:33;;;;;;;2.43;1.20;;;;;;;6.14;58.11;95283.22;5115380;28;20462;-60
2022/12/23 07:18:02;;;;;;;8.03;2.07;;;;;;;7.05;56.31;95298.31;5115498;28;20509;-61
2022/12/23 07:20:30;;;;;;;2.40;1.43;;;;;;;7.39;54.24;95297.06;5115142;28;20432;-60
2022/12/23 07:22:58;;;;;;;3.60;2.23;;;;;;;6.98;54.82;95258.97;5115264;28;20435;-60
2022/12/23 07:25:28;;;;;;;1.60;1.37;;;;;;;7.68;54.22;95289.69;5114963;28;20468;-60
2022/12/23 07:27:58;;;;;;;2.30;2.03;;;;;;;7.29;55.28;95294.34;5114955;28;20566;-60
2022/12/23 07:30:26;;;;;;;6.53;6.23;;;;;;;7.21;55.58;95286.88;5114916;28;20414;-61
2022/12/23 07:32:54;;;;;;;6.30;1.43;;;;;;;7.38;54.72;95295.50;5114851;28;20435;-61
2022/12/23 07:35:23;;;;;;;7.13;3.30;;;;;;;7.20;55.94;95293.19;5114808;28;20884;-62
2022/12/23 07:37:53;;;;;;;2.80;2.47;;;;;;;7.78;53.17;95284.50;5114777;28;20472;-62
2022/12/23 07:40:22;;;;;;;5.43;3.43;;;;;;;8.41;51.81;95288.09;5114852;28;20421;-63
2022/12/23 07:42:53;;;;;;;8.03;4.20;;;;;;;8.72;51.52;95232.53;5114581;28;20799;-62
2022/12/23 07:45:23;;;;;;;6.97;2.87;;;;;;;9.39;49.21;95284.50;5113639;28;20517;-62
2022/12/23 07:47:53;;;;;;;8.03;3.27;;;;;;;9.64;48.47;95279.22;5113423;28;20591;-61
2022/12/23 07:50:22;;;;;;;4.10;3.90;;;;;;;9.79;48.36;95281.09;5113611;28;20474;-61
2022/12/23 07:52:50;;;;;;;2.77;2.47;;;;;;;10.44;46.57;95277.63;5114249;28;20780;-62
2022/12/23 07:55:19;;;;;;;2.70;2.50;;;;;;;10.10;46.03;95285.31;5114341;28;20436;-62
2022/12/23 07:57:48;;;;;;;5.20;4.70;;;;;;;9.42;46.17;95210.69;5114416;28;20438;-63
2022/12/23 08:00:17;;;;;;;4.63;3.60;;;;;;;9.50;48.28;95291.41;5114154;28;20886;-64
2022/12/23 08:02:48;;;;;;;3.33;3.13;;;;;;;9.24;48.20;95276.53;5114296;28;20500;-64
2022/12/23 08:05:17;;;;;;;2.70;2.60;;;;;;;9.25;49.18;95300.09;5114249;28;20463;-64
2022/12/23 08:07:48;;;;;;;2.43;2.17;;;;;;;9.94;47.70;95289.81;5113957;28;20480;-64
2022/12/23 08:10:16;;;;;;;8.20;4.30;;;;;;;10.54;47.52;95289.00;5113913;28;21019;-64
2022/12/23 08:12:45;;;;;;;1.80;1.70;;;;;;;10.73;48.28;95289.19;5114329;28;20465;-62
2022/12/23 08:15:14;;;;;;;2.30;2.13;;;;;;;11.08;47.36;95285.63;5113859;28;20460;-62
2022/12/23 08:17:42;;;;;;;3.33;3.23;;;;;;;11.12;45.67;95290.09;5113407;28;20417;-63
2022/12/23 08:20:12;;;;;;;2.57;2.47;;;;;;;10.74;47.04;95288.13;5113962;28;20918;-67
2022/12/23 08:22:41;;;;;;;2.40;2.20;;;;;;;11.64;46.37;95286.09;5113777;28;20495;-68
2022/12/23 08:25:09;;;;;;;7.37;1.83;;;;;;;11.42;45.91;95287.28;5112468;28;20428;-58
2022/12/23 08:27:38;;;;;;;4.97;2.90;;;;;;;11.19;46.56;95285.28;5112864;28;20467;-59
2022/12/23 08:30:07;;;;;;;5.43;3.80;;;;;;;11.33;46.34;95278.28;5114124;28;20439;-61
2022/12/23 08:32:35;;;;;;;5.50;5.17;;;;;;;11.42;46.03;95276.66;5113818;28;20428;-61
2022/12/23 08:35:04;;;;;;;4.50;3.57;;;;;;;12.04;45.52;95277.84;5114241;28;20442;-60
2022/12/23 08:37:34;;;;;;;2.63;2.50;;;;;;;12.37;45.39;95274.31;5113821;28;20415;-60
2022/12/23 08:40:02;;;;;;;3.40;3.20;;;;;;;12.81;43.52;95275.97;5113813;28;20426;-59
2022/12/23 08:42:30;;;;;;;7.80;3.03;;;;;;;13.24;42.44;95266.97;5113690;28;20509;-59
2022/12/23 08:44:59;;;;;;;5.23;4.23;;;;;;;13.50;42.62;95262.88;5113318;28;20812;-58
2022/12/23 08:47:28;;;;;;;4.93;3.50;;;;;;;13.69;41.20;95247.69;5113342;28;20591;-58
2022/12/23 08:49:56;;;;;;;4.73;3.53;;;;;;;13.81;41.14;95247.25;5113317;28;20469;-59
2022/12/23 08:52:24;;;;;;;5.87;4.27;;;;;;;14.66;40.09;95246.84;5113357;28;20464;-59
2022/12/23 08:54:54;;;;;;;5.43;3.50;;;;;;;14.38;39.59;95238.03;5113458;28;20463;-59
2022/12/23 08:57:22;;;;;;;6.33;2.80;;;;;;;14.11;39.30;95241.41;5113800;28;20459;-59
2022/12/23 08:59:51;;;;;;;3.20;3.00;;;;;;;13.93;39.30;95232.38;5113631;28;20420;-59
2022/12/23 09:02:19;;;;;;;6.87;3.43;;;;;;;14.13;39.14;95233.13;5113346;28;20436;-59
2022/12/23 09:04:48;;;;;;;8.67;3.00;;;;;;;14.50;37.87;95222.31;5113563;28;20431;-58
2022/12/23 09:07:16;;;;;;;3.90;3.60;;;;;;;14.65;38.64;95230.03;5113141;28;20510;-58
2022/12/23 09:09:44;;;;;;;11.00;4.43;;;;;;;14.91;37.27;95223.13;5113079;28;20416;-58
2022/12/23 09:12:14;;;;;;;15.30;3.60;;;;;;;15.00;36.73;95215.22;5113312;28;20514;-57
2022/12/23 09:14:46;;;;;;;5.40;3.40;;;;;;;14.80;37.12;95208.38;5112859;28;20460;-57
2022/12/23 09:17:16;;;;;;;4.00;2.83;;;;;;;14.93;38.49;95214.81;5112998;28;20427;-57
2022/12/23 09:19:44;;;;;;;4.17;3.77;;;;;;;15.69;36.07;95212.06;5112838;28;20428;-57
2022/12/23 09:22:20;;;;;;;1.43;1.27;;;;;;;15.51;36.03;95207.69;5113126;28;20462;-57
2022/12/23 09:24:48;;;;;;;3.13;2.93;;;;;;;15.49;36.78;95217.88;5112688;28;20463;-58
2022/12/23 09:27:18;;;;;;;7.13;2.77;;;;;;;16.70;35.47;95206.81;5112545;28;20973;-57
2022/12/23 09:29:47;;;;;;;3.27;2.43;;;;;;;16.24;36.59;95201.09;5112683;28;20423;-57
2022/12/23 09:32:15;;;;;;;2.83;2.57;;;;;;;15.31;35.95;95039.09;5112758;28;20460;-57
2022/12/23 09:34:44;;;;;;;3.63;3.33;;;;;;;16.27;36.21;95201.25;5112592;28;20423;-57
2022/12/23 09:37:15;;;;;;;10.57;4.93;;;;;;;16.81;35.10;95185.91;5112251;28;20457;-57
2022/12/23 09:39:43;;;;;;;3.00;2.10;;;;;;;16.65;35.30;95190.09;5112075;28;20424;-57
2022/12/23 09:42:25;;;;;;;4.67;4.47;;;;;;;14.94;36.58;95179.81;5112547;28;20436;-56
2022/12/23 09:45:09;;;;;;;3.40;3.23;;;;;;;15.77;35.69;95173.13;5112544;28;20456;-56
2022/12/23 09:47:39;;;;;;;2.20;2.10;;;;;;;16.31;35.43;95177.38;5112349;28;20428;-56
2022/12/23 09:50:18;;;;;;;2.30;1.97;;;;;;;17.58;33.89;95170.72;5112075;28;20482;-55
2022/12/23 09:52:56;;;;;;;3.60;3.30;;;;;;;16.87;34.30;95161.38;5112320;28;20885;-56
2022/12/23 09:55:31;;;;;;;3.77;3.47;;;;;;;17.72;33.21;95151.81;5112308;28;20424;-56
2022/12/23 09:58:06;;;;;;;14.33;3.80;;;;;;;16.97;33.06;95160.28;5112439;28;20431;-56
2022/12/23 10:00:39;;;;;;;6.70;4.00;;;;;;;17.33;34.05;95166.13;5112212;28;20439;-56
2022/12/23 10:03:20;;;;;;;3.27;1.87;;;;;;;18.15;32.76;95154.41;5112456;28;20794;-56
2022/12/23 10:05:59;;;;;;;7.30;1.40;;;;;;;16.44;33.06;95022.09;5112313;28;20788;-56
2022/12/23 10:08:34;;;;;;;1.27;1.17;;;;;;;17.89;32.40;95159.03;5112269;28;20990;-56
2022/12/23 10:11:10;;;;;;;2.50;2.30;;;;;;;18.08;32.59;95148.75;5111953;28;20952;-55
2022/12/23 10:13:43;;;;;;;3.20;3.00;;;;;;;18.03;31.89;95133.63;5111596;28;20791;-56
2022/12/23 10:16:15;;;;;;;8.23;3.40;;;;;;;16.41;32.72;94939.03;5111948;28;20423;-56
2022/12/23 10:18:52;;;;;;;1.17;1.13;;;;;;;19.10;31.02;95134.03;5112263;28;21013;-55
2022/12/23 10:21:28;;;;;;;3.10;1.10;;;;;;;19.76;31.16;95110.75;5112116;28;20443;-55
2022/12/23 10:23:59;;;;;;;1.90;1.80;;;;;;;18.95;31.87;95126.56;5111496;28;20432;-56
2022/12/23 10:26:34;;;;;;;7.03;1.90;;;;;;;18.90;31.21;95129.44;5111656;28;20892;-56
2022/12/23 10:29:16;;;;;;;4.23;2.20;;;;;;;20.10;31.08;95117.69;5111583;28;20528;-55
2022/12/23 10:31:57;;;;;;;3.37;3.27;;;;;;;19.41;30.89;95104.91;5111434;28;20828;-55
2022/12/23 10:34:34;;;;;;;3.10;2.60;;;;;;;18.93;31.20;95115.38;5111765;28;20432;-55
2022/12/23 10:37:13;;;;;;;5.23;3.27;;;;;;;18.95;31.60;95113.94;5111364;28;20439;-55
2022/12/23 10:39:50;;;;;;;2.20;2.07;;;;;;;18.19;30.68;94970.25;5111749;28;20472;-54
2022/12/23 10:42:27;;;;;;;1.50;1.40;;;;;;;19.42;30.73;95095.75;5111446;28;20435;-54
2022/12/23 10:45:10;;;;;;;4.73;2.90;;;;;;;19.76;30.03;95101.91;5111505;28;20431;-54
2022/12/23 10:47:51;;;;;;;1.40;1.30;;;;;;;19.02;29.82;95092.69;5112716;28;20427;-54
2022/12/23 10:50:44;;;;;;;3.37;2.90;;;;;;;20.00;29.63;95097.38;5115625;28;20487;-55
2022/12/23 10:53:17;;;;;;;1.80;1.70;;;;;;;19.61;29.46;95105.97;5115777;28;20427;-56
2022/12/23 10:55:45;;;;;;;4.10;1.30;;;;;;;21.20;27.55;95101.19;5114879;28;20435;-56
2022/12/23 10:58:17;;;;;;;3.30;3.00;;;;;;;19.25;30.14;95097.75;5115214;28;20428;-55
2022/12/23 11:00:51;;;;;;;1.40;1.40;;;;;;;20.21;29.04;95092.69;5115364;28;20428;-55
2022/12/23 11:03:23;;;;;;;2.50;1.97;;;;;;;19.36;30.73;95086.25;5115524;28;20828;-55
2022/12/23 11:05:53;;;;;;;1.50;1.40;;;;;;;21.32;28.32;95082.31;5115475;28;20427;-55
2022/12/23 11:08:23;;;;;;;1.57;1.50;;;;;;;21.61;27.15;95077.66;5115125;28;20470;-55
2022/12/23 11:10:52;;;;;;;1.70;1.60;;;;;;;22.12;27.04;95074.84;5115228;28;20994;-55
2022/12/23 11:13:26;;;;;;;8.20;1.90;;;;;;;20.65;28.25;95074.09;5115497;28;20432;-55
2022/12/23 11:16:25;;;;;;;2.57;2.43;;;;;;;20.33;28.70;95069.63;5115197;28;20763;-54
2022/12/23 11:18:58;;;;;;;1.23;1.17;;;;;;;21.94;27.24;95070.09;5112364;28;20935;-55
2022/12/23 11:21:27;;;;;;;3.30;3.10;;;;;;;20.49;28.14;95071.28;5115069;28;20506;-54
2022/12/23 11:24:26;;;;;;;3.80;2.40;;;;;;;20.76;28.23;95061.75;5115007;28;21065;-56
2022/12/23 11:27:01;;;;;;;8.03;3.17;;;;;;;18.74;30.02;95062.13;5031997;28;20515;-56
2022/12/23 11:29:33;;;;;;;1.17;1.07;;;;;;;19.83;30.80;95038.41;5100829;28;20478;-58
2022/12/23 11:32:15;;;;;;;5.30;2.53;;;;;;;20.60;30.24;95050.09;5114734;28;20464;-55
2022/12/23 11:34:47;;;;;;;0.70;0.70;;;;;;;21.35;29.10;95064.66;5114770;28;20530;-55
2022/12/23 11:37:26;;;;;;;1.80;1.33;;;;;;;20.09;30.08;95055.00;5114697;28;20963;-55
2022/12/23 11:39:54;;;;;;;4.80;1.87;;;;;;;20.04;29.12;95047.16;5114656;28;20427;-55
2022/12/23 11:42:28;;;;;;;1.90;1.80;;;;;;;20.10;28.90;95051.19;5114746;28;20428;-55
2022/12/23 11:44:59;;;;;;;2.40;2.20;;;;;;;19.34;29.47;94948.75;5114277;28;20424;-55
2022/12/23 11:47:36;;;;;;;1.70;1.60;;;;;;;19.83;29.57;95043.78;5114375;28;20943;-55
2022/12/23 11:50:26;;;;;;;3.43;1.87;;;;;;;18.46;30.54;95047.56;5114313;28;20938;-55
2022/12/23 11:53:01;;;;;;;1.33;0.87;;;;;;;18.82;30.57;95042.44;5114287;28;20434;-56
2022/12/23 11:55:32;;;;;;;1.13;1.13;;;;;;;19.96;30.05;95031.88;5114350;28;20576;-53
2022/12/23 11:58:02;;;;;;;1.30;1.20;;;;;;;20.13;29.38;95037.09;5113716;28;20471;-53
2022/12/23 12:00:38;;;;;;;3.23;1.00;;;;;;;20.91;28.39;95031.41;5113860;28;20436;-53
2022/12/23 12:03:19;;;;;;;1.37;1.10;;;;;;;20.61;29.01;95035.50;5114617;28;20488;-53
2022/12/23 12:05:50;;;;;;;1.80;1.57;;;;;;;20.73;28.99;95030.88;5114277;28;20508;-53
2022/12/23 12:08:24;;;;;;;1.07;1.07;;;;;;;21.40;30.20;95032.06;5113896;28;20481;-53
2022/12/23 12:10:59;;;;;;;2.20;1.33;;;;;;;21.49;28.64;95009.19;5114364;28;20516;-52
2022/12/23 12:13:30;;;;;;;1.80;1.70;;;;;;;21.27;28.43;95017.84;5114009;28;20470;-53
2022/12/23 12:16:12;;;;;;;2.50;2.30;;;;;;;20.23;29.50;95023.22;5114207;28;20428;-53
2022/12/23 12:18:44;;;;;;;2.30;2.20;;;;;;;20.62;28.99;95012.81;5113844;28;20426;-52
2022/12/23 12:21:23;;;;;;;2.70;1.87;;;;;;;21.68;28.38;95003.13;5113693;28;20431;-53
2022/12/23 12:23:53;;;;;;;0.70;0.50;;;;;;;23.03;29.69;94996.25;5114253;28;20458;-53
2022/12/23 12:26:44;;;;;;;0.80;0.80;;;;;;;23.24;26.05;94997.47;5113816;28;20444;-52
2022/12/23 12:29:18;;;;;;;4.23;1.83;;;;;;;21.40;27.54;94999.69;5113221;28;20464;-52
2022/12/23 12:31:49;;;;;;;1.03;1.03;;;;;;;21.08;28.37;95011.50;5112690;28;20423;-54